sensor_id;sensor_type;location;lat;lon;timestamp;temperature;humidity
49765;DHT22;35657;51.204;-4.130;2023-01-10T00:00:27;8.00;99.90
49765;DHT22;35657;51.204;-4.130;2023-01-10T00:02:56;8.10;99.90
49765;DHT22;35657;51.204;-4.130;2023-01-10T00:05:22;8.20;99.90
49765;DHT22;35657;51.204;-4.130;2023-01-10T00:07:48;8.20;99.90
49765;DHT22;35657;51.204;-4.130;2023-01-10T00:10:14;8.20;99.90
49765;DHT22;35657;51.204;-4.130;2023-01-10T00:12:40;8.20;99.90
49765;DHT22;35657;51.204;-4.130;2023-01-10T00:15:24;8.20;99.90
49765;DHT22;35657;51.204;-4.130;2023-01-10T00:17:50;8.10;99.90
49765;DHT22;35657;51.204;-4.130;2023-01-10T00:20:16;8.10;99.90
49765;DHT22;35657;51.204;-4.130;2023-01-10T00:22:41;8.10;99.90
49765;DHT22;35657;51.204;-4.130;2023-01-10T00:25:08;8.10;99.90
49765;DHT22;35657;51.204;-4.130;2023-01-10T00:27:34;8.10;99.90
49765;DHT22;35657;51.204;-4.130;2023-01-10T00:30:00;8.10;99.90
49765;DHT22;35657;51.204;-4.130;2023-01-10T00:32:33;8.10;99.90
49765;DHT22;35657;51.204;-4.130;2023-01-10T00:34:58;8.10;99.90
49765;DHT22;35657;51.204;-4.130;2023-01-10T00:37:26;8.10;99.90
49765;DHT22;35657;51.204;-4.130;2023-01-10T00:39:52;8.10;99.90
49765;DHT22;35657;51.204;-4.130;2023-01-10T00:42:17;8.10;99.90
49765;DHT22;35657;51.204;-4.130;2023-01-10T00:45:02;8.10;99.90
49765;DHT22;35657;51.204;-4.130;2023-01-10T00:47:27;8.20;99.90
49765;DHT22;35657;51.204;-4.130;2023-01-10T00:49:53;8.10;99.90
49765;DHT22;35657;51.204;-4.130;2023-01-10T00:52:19;8.10;99.90
49765;DHT22;35657;51.204;-4.130;2023-01-10T00:54:44;8.20;99.90
49765;DHT22;35657;51.204;-4.130;2023-01-10T00:57:10;8.10;99.90
49765;DHT22;35657;51.204;-4.130;2023-01-10T00:59:36;8.20;99.90
49765;DHT22;35657;51.204;-4.130;2023-01-10T01:02:01;8.30;99.90
49765;DHT22;35657;51.204;-4.130;2023-01-10T01:04:27;8.30;99.90
49765;DHT22;35657;51.204;-4.130;2023-01-10T01:07:01;8.30;99.90
49765;DHT22;35657;51.204;-4.130;2023-01-10T01:09:28;8.30;99.90
49765;DHT22;35657;51.204;-4.130;2023-01-10T01:11:54;8.30;99.90
49765;DHT22;35657;51.204;-4.130;2023-01-10T01:14:22;8.20;99.90
49765;DHT22;35657;51.204;-4.130;2023-01-10T01:16:48;8.20;99.90
49765;DHT22;35657;51.204;-4.130;2023-01-10T01:19:13;8.20;99.90
49765;DHT22;35657;51.204;-4.130;2023-01-10T01:21:40;8.20;99.90
49765;DHT22;35657;51.204;-4.130;2023-01-10T01:24:07;8.20;99.90
49765;DHT22;35657;51.204;-4.130;2023-01-10T01:26:33;8.10;99.90
49765;DHT22;35657;51.204;-4.130;2023-01-10T01:28:59;8.10;99.90
49765;DHT22;35657;51.204;-4.130;2023-01-10T01:31:25;8.10;99.90
49765;DHT22;35657;51.204;-4.130;2023-01-10T01:33:51;8.10;99.90
49765;DHT22;35657;51.204;-4.130;2023-01-10T01:36:16;8.10;99.90
49765;DHT22;35657;51.204;-4.130;2023-01-10T01:38:42;8.10;99.90
49765;DHT22;35657;51.204;-4.130;2023-01-10T01:41:09;8.10;99.90
49765;DHT22;35657;51.204;-4.130;2023-01-10T01:44:06;8.10;99.90
49765;DHT22;35657;51.204;-4.130;2023-01-10T01:46:35;8.10;99.90
49765;DHT22;35657;51.204;-4.130;2023-01-10T01:49:03;8.10;99.90
49765;DHT22;35657;51.204;-4.130;2023-01-10T01:51:31;8.10;99.90
49765;DHT22;35657;51.204;-4.130;2023-01-10T01:54:04;8.10;99.90
49765;DHT22;35657;51.204;-4.130;2023-01-10T01:56:37;8.10;99.90
49765;DHT22;35657;51.204;-4.130;2023-01-10T01:59:27;8.10;99.90
49765;DHT22;35657;51.204;-4.130;2023-01-10T02:01:58;8.20;99.90
49765;DHT22;35657;51.204;-4.130;2023-01-10T02:04:30;8.20;99.90
49765;DHT22;35657;51.204;-4.130;2023-01-10T02:06:57;8.20;99.90
49765;DHT22;35657;51.204;-4.130;2023-01-10T02:12:29;8.10;99.90
49765;DHT22;35657;51.204;-4.130;2023-01-10T02:14:56;8.10;99.90
49765;DHT22;35657;51.204;-4.130;2023-01-10T02:17:23;8.10;99.90
49765;DHT22;35657;51.204;-4.130;2023-01-10T02:39:23;8.10;99.90
49765;DHT22;35657;51.204;-4.130;2023-01-10T02:41:51;8.10;99.90
49765;DHT22;35657;51.204;-4.130;2023-01-10T02:47:03;8.10;99.90
49765;DHT22;35657;51.204;-4.130;2023-01-10T02:49:29;8.10;99.90
49765;DHT22;35657;51.204;-4.130;2023-01-10T02:51:55;8.20;99.90
49765;DHT22;35657;51.204;-4.130;2023-01-10T02:54:25;8.20;99.90
49765;DHT22;35657;51.204;-4.130;2023-01-10T03:00:16;8.30;99.90
49765;DHT22;35657;51.204;-4.130;2023-01-10T03:06:23;8.20;99.90
49765;DHT22;35657;51.204;-4.130;2023-01-10T03:10:56;8.20;99.90
49765;DHT22;35657;51.204;-4.130;2023-01-10T03:13:40;8.20;99.90
49765;DHT22;35657;51.204;-4.130;2023-01-10T03:16:11;8.20;99.90
49765;DHT22;35657;51.204;-4.130;2023-01-10T03:18:44;8.20;99.90
49765;DHT22;35657;51.204;-4.130;2023-01-10T03:21:11;8.20;99.90
49765;DHT22;35657;51.204;-4.130;2023-01-10T03:23:38;8.20;99.90
49765;DHT22;35657;51.204;-4.130;2023-01-10T03:26:06;8.20;99.90
49765;DHT22;35657;51.204;-4.130;2023-01-10T03:31:43;8.20;99.90
49765;DHT22;35657;51.204;-4.130;2023-01-10T03:34:10;8.20;99.90
49765;DHT22;35657;51.204;-4.130;2023-01-10T03:36:44;8.20;99.90
49765;DHT22;35657;51.204;-4.130;2023-01-10T03:41:54;8.20;99.90
49765;DHT22;35657;51.204;-4.130;2023-01-10T03:44:30;8.20;99.90
49765;DHT22;35657;51.204;-4.130;2023-01-10T03:52:33;8.30;99.90
49765;DHT22;35657;51.204;-4.130;2023-01-10T03:54:59;8.30;99.90
49765;DHT22;35657;51.204;-4.130;2023-01-10T03:57:27;8.30;99.90
49765;DHT22;35657;51.204;-4.130;2023-01-10T03:59:59;8.30;99.90
49765;DHT22;35657;51.204;-4.130;2023-01-10T04:02:31;8.30;99.90
49765;DHT22;35657;51.204;-4.130;2023-01-10T04:04:57;8.20;99.90
49765;DHT22;35657;51.204;-4.130;2023-01-10T04:07:24;8.20;99.90
49765;DHT22;35657;51.204;-4.130;2023-01-10T04:09:50;8.20;99.90
49765;DHT22;35657;51.204;-4.130;2023-01-10T04:12:16;8.20;99.90
49765;DHT22;35657;51.204;-4.130;2023-01-10T04:14:41;8.20;99.90
49765;DHT22;35657;51.204;-4.130;2023-01-10T04:17:10;8.20;99.90
49765;DHT22;35657;51.204;-4.130;2023-01-10T04:19:35;8.20;99.90
49765;DHT22;35657;51.204;-4.130;2023-01-10T04:22:01;8.20;99.90
49765;DHT22;35657;51.204;-4.130;2023-01-10T04:24:27;8.20;99.90
49765;DHT22;35657;51.204;-4.130;2023-01-10T04:26:53;8.20;99.90
49765;DHT22;35657;51.204;-4.130;2023-01-10T04:29:18;8.20;99.90
49765;DHT22;35657;51.204;-4.130;2023-01-10T04:31:44;8.20;99.90
49765;DHT22;35657;51.204;-4.130;2023-01-10T04:34:10;8.20;99.90
49765;DHT22;35657;51.204;-4.130;2023-01-10T04:36:36;8.20;99.90
49765;DHT22;35657;51.204;-4.130;2023-01-10T04:39:03;8.20;99.90
49765;DHT22;35657;51.204;-4.130;2023-01-10T04:41:29;8.20;99.90
49765;DHT22;35657;51.204;-4.130;2023-01-10T04:43:54;8.20;99.90
49765;DHT22;35657;51.204;-4.130;2023-01-10T04:46:20;8.30;99.90
49765;DHT22;35657;51.204;-4.130;2023-01-10T04:48:46;8.30;99.90
49765;DHT22;35657;51.204;-4.130;2023-01-10T04:51:12;8.30;99.90
49765;DHT22;35657;51.204;-4.130;2023-01-10T04:53:37;8.30;99.90
49765;DHT22;35657;51.204;-4.130;2023-01-10T04:56:08;8.30;99.90
49765;DHT22;35657;51.204;-4.130;2023-01-10T04:58:35;8.30;99.90
49765;DHT22;35657;51.204;-4.130;2023-01-10T05:01:16;8.30;99.90
49765;DHT22;35657;51.204;-4.130;2023-01-10T05:03:42;8.30;99.90
49765;DHT22;35657;51.204;-4.130;2023-01-10T05:06:08;8.30;99.90
49765;DHT22;35657;51.204;-4.130;2023-01-10T05:08:34;8.30;99.90
49765;DHT22;35657;51.204;-4.130;2023-01-10T05:11:00;8.30;99.90
49765;DHT22;35657;51.204;-4.130;2023-01-10T05:13:26;8.30;99.90
49765;DHT22;35657;51.204;-4.130;2023-01-10T05:15:56;8.30;99.90
49765;DHT22;35657;51.204;-4.130;2023-01-10T05:18:23;8.30;99.90
49765;DHT22;35657;51.204;-4.130;2023-01-10T05:20:49;8.30;99.90
49765;DHT22;35657;51.204;-4.130;2023-01-10T05:23:15;8.30;99.90
49765;DHT22;35657;51.204;-4.130;2023-01-10T05:25:41;8.30;99.90
49765;DHT22;35657;51.204;-4.130;2023-01-10T05:28:07;8.30;99.90
49765;DHT22;35657;51.204;-4.130;2023-01-10T05:30:33;8.30;99.90
49765;DHT22;35657;51.204;-4.130;2023-01-10T05:32:59;8.30;99.90
49765;DHT22;35657;51.204;-4.130;2023-01-10T05:35:24;8.30;99.90
49765;DHT22;35657;51.204;-4.130;2023-01-10T05:37:50;8.30;99.90
49765;DHT22;35657;51.204;-4.130;2023-01-10T05:40:16;8.40;99.90
49765;DHT22;35657;51.204;-4.130;2023-01-10T05:42:42;8.40;99.90
49765;DHT22;35657;51.204;-4.130;2023-01-10T05:45:08;8.40;99.90
49765;DHT22;35657;51.204;-4.130;2023-01-10T05:47:34;8.50;99.90
49765;DHT22;35657;51.204;-4.130;2023-01-10T05:50:00;8.50;99.90
49765;DHT22;35657;51.204;-4.130;2023-01-10T05:52:25;8.50;99.90
49765;DHT22;35657;51.204;-4.130;2023-01-10T05:54:51;8.50;99.90
49765;DHT22;35657;51.204;-4.130;2023-01-10T05:57:17;8.50;99.90
49765;DHT22;35657;51.204;-4.130;2023-01-10T05:59:43;8.40;99.90
49765;DHT22;35657;51.204;-4.130;2023-01-10T06:02:10;8.40;99.90
49765;DHT22;35657;51.204;-4.130;2023-01-10T06:04:35;8.50;99.90
49765;DHT22;35657;51.204;-4.130;2023-01-10T06:07:01;8.50;99.90
49765;DHT22;35657;51.204;-4.130;2023-01-10T06:09:27;8.50;99.90
49765;DHT22;35657;51.204;-4.130;2023-01-10T06:11:52;8.50;99.90
49765;DHT22;35657;51.204;-4.130;2023-01-10T06:14:18;8.50;99.90
49765;DHT22;35657;51.204;-4.130;2023-01-10T06:16:45;8.50;99.90
49765;DHT22;35657;51.204;-4.130;2023-01-10T06:19:10;8.50;99.90
49765;DHT22;35657;51.204;-4.130;2023-01-10T06:21:36;8.60;99.90
49765;DHT22;35657;51.204;-4.130;2023-01-10T06:24:02;8.50;99.90
49765;DHT22;35657;51.204;-4.130;2023-01-10T06:26:28;8.50;99.90
49765;DHT22;35657;51.204;-4.130;2023-01-10T06:28:53;8.50;99.90
49765;DHT22;35657;51.204;-4.130;2023-01-10T06:31:19;8.60;99.90
49765;DHT22;35657;51.204;-4.130;2023-01-10T06:33:45;8.60;99.90
49765;DHT22;35657;51.204;-4.130;2023-01-10T06:36:11;8.60;99.90
49765;DHT22;35657;51.204;-4.130;2023-01-10T06:38:37;8.60;99.90
49765;DHT22;35657;51.204;-4.130;2023-01-10T06:41:02;8.70;99.90
49765;DHT22;35657;51.204;-4.130;2023-01-10T06:43:44;8.70;99.90
49765;DHT22;35657;51.204;-4.130;2023-01-10T06:46:14;8.70;99.90
49765;DHT22;35657;51.204;-4.130;2023-01-10T06:48:41;8.70;99.90
49765;DHT22;35657;51.204;-4.130;2023-01-10T06:51:09;8.80;99.90
49765;DHT22;35657;51.204;-4.130;2023-01-10T06:53:35;8.70;99.90
49765;DHT22;35657;51.204;-4.130;2023-01-10T06:56:01;8.80;99.90
49765;DHT22;35657;51.204;-4.130;2023-01-10T06:58:27;8.80;99.90
49765;DHT22;35657;51.204;-4.130;2023-01-10T07:00:53;8.80;99.90
49765;DHT22;35657;51.204;-4.130;2023-01-10T07:03:19;8.80;99.90
49765;DHT22;35657;51.204;-4.130;2023-01-10T07:05:45;8.80;99.90
49765;DHT22;35657;51.204;-4.130;2023-01-10T07:08:10;8.80;99.90
49765;DHT22;35657;51.204;-4.130;2023-01-10T07:10:39;8.80;99.90
49765;DHT22;35657;51.204;-4.130;2023-01-10T07:13:05;8.90;99.90
49765;DHT22;35657;51.204;-4.130;2023-01-10T07:15:32;8.90;99.90
49765;DHT22;35657;51.204;-4.130;2023-01-10T07:17:58;8.90;99.90
49765;DHT22;35657;51.204;-4.130;2023-01-10T07:20:24;8.90;99.90
49765;DHT22;35657;51.204;-4.130;2023-01-10T07:22:57;9.00;99.90
49765;DHT22;35657;51.204;-4.130;2023-01-10T07:25:24;9.00;99.90
49765;DHT22;35657;51.204;-4.130;2023-01-10T07:27:50;9.00;99.90
49765;DHT22;35657;51.204;-4.130;2023-01-10T07:30:20;9.00;99.90
49765;DHT22;35657;51.204;-4.130;2023-01-10T07:32:52;9.00;99.90
49765;DHT22;35657;51.204;-4.130;2023-01-10T07:35:18;9.10;99.90
49765;DHT22;35657;51.204;-4.130;2023-01-10T07:37:43;9.20;99.90
49765;DHT22;35657;51.204;-4.130;2023-01-10T07:40:10;9.20;99.90
49765;DHT22;35657;51.204;-4.130;2023-01-10T07:42:35;9.30;99.90
49765;DHT22;35657;51.204;-4.130;2023-01-10T07:45:01;9.30;99.90
49765;DHT22;35657;51.204;-4.130;2023-01-10T07:47:27;9.30;99.90
49765;DHT22;35657;51.204;-4.130;2023-01-10T07:49:53;9.20;99.90
49765;DHT22;35657;51.204;-4.130;2023-01-10T07:52:18;9.20;99.90
49765;DHT22;35657;51.204;-4.130;2023-01-10T07:54:44;9.20;99.90
49765;DHT22;35657;51.204;-4.130;2023-01-10T07:57:09;9.20;99.90
49765;DHT22;35657;51.204;-4.130;2023-01-10T07:59:35;9.20;99.90
49765;DHT22;35657;51.204;-4.130;2023-01-10T08:02:01;9.20;99.90
49765;DHT22;35657;51.204;-4.130;2023-01-10T08:04:26;9.20;99.90
49765;DHT22;35657;51.204;-4.130;2023-01-10T08:06:53;9.20;99.90
49765;DHT22;35657;51.204;-4.130;2023-01-10T08:09:19;9.20;99.90
49765;DHT22;35657;51.204;-4.130;2023-01-10T08:11:45;9.30;99.90
49765;DHT22;35657;51.204;-4.130;2023-01-10T08:14:10;9.30;99.90
49765;DHT22;35657;51.204;-4.130;2023-01-10T08:16:36;9.40;99.90
49765;DHT22;35657;51.204;-4.130;2023-01-10T08:19:02;9.40;99.90
49765;DHT22;35657;51.204;-4.130;2023-01-10T08:21:27;9.50;99.90
49765;DHT22;35657;51.204;-4.130;2023-01-10T08:23:53;9.60;99.90
49765;DHT22;35657;51.204;-4.130;2023-01-10T08:26:19;9.60;99.90
49765;DHT22;35657;51.204;-4.130;2023-01-10T08:28:45;9.80;99.90
49765;DHT22;35657;51.204;-4.130;2023-01-10T08:31:10;9.90;99.90
49765;DHT22;35657;51.204;-4.130;2023-01-10T08:33:38;10.00;99.90
49765;DHT22;35657;51.204;-4.130;2023-01-10T08:36:04;10.00;99.90
49765;DHT22;35657;51.204;-4.130;2023-01-10T08:38:30;10.10;99.90
49765;DHT22;35657;51.204;-4.130;2023-01-10T08:40:56;10.10;99.90
49765;DHT22;35657;51.204;-4.130;2023-01-10T08:43:25;10.10;99.90
49765;DHT22;35657;51.204;-4.130;2023-01-10T08:45:51;10.20;99.90
49765;DHT22;35657;51.204;-4.130;2023-01-10T08:48:16;10.10;99.90
49765;DHT22;35657;51.204;-4.130;2023-01-10T08:50:42;10.20;99.90
49765;DHT22;35657;51.204;-4.130;2023-01-10T08:53:08;10.20;99.90
49765;DHT22;35657;51.204;-4.130;2023-01-10T08:55:34;10.10;99.90
49765;DHT22;35657;51.204;-4.130;2023-01-10T08:58:00;10.20;99.90
49765;DHT22;35657;51.204;-4.130;2023-01-10T09:00:27;10.30;99.90
49765;DHT22;35657;51.204;-4.130;2023-01-10T09:02:53;10.20;99.90
49765;DHT22;35657;51.204;-4.130;2023-01-10T09:05:18;10.30;99.90
49765;DHT22;35657;51.204;-4.130;2023-01-10T09:07:44;10.30;99.90
49765;DHT22;35657;51.204;-4.130;2023-01-10T09:10:11;10.40;99.90
49765;DHT22;35657;51.204;-4.130;2023-01-10T09:12:37;10.30;99.90
49765;DHT22;35657;51.204;-4.130;2023-01-10T09:15:32;10.30;99.90
49765;DHT22;35657;51.204;-4.130;2023-01-10T09:18:00;10.40;99.90
49765;DHT22;35657;51.204;-4.130;2023-01-10T09:20:27;10.50;99.90
49765;DHT22;35657;51.204;-4.130;2023-01-10T09:22:54;10.50;99.90
49765;DHT22;35657;51.204;-4.130;2023-01-10T09:25:21;10.60;99.90
49765;DHT22;35657;51.204;-4.130;2023-01-10T09:27:47;10.60;99.90
49765;DHT22;35657;51.204;-4.130;2023-01-10T09:30:19;10.60;99.90
49765;DHT22;35657;51.204;-4.130;2023-01-10T09:32:49;10.60;99.90
49765;DHT22;35657;51.204;-4.130;2023-01-10T09:35:15;10.60;99.90
49765;DHT22;35657;51.204;-4.130;2023-01-10T09:37:41;10.60;99.90
49765;DHT22;35657;51.204;-4.130;2023-01-10T09:40:09;10.60;99.90
49765;DHT22;35657;51.204;-4.130;2023-01-10T09:46:08;10.70;99.90
49765;DHT22;35657;51.204;-4.130;2023-01-10T09:51:27;10.60;99.90
49765;DHT22;35657;51.204;-4.130;2023-01-10T09:53:58;10.70;99.90
49765;DHT22;35657;51.204;-4.130;2023-01-10T09:56:27;10.70;99.90
49765;DHT22;35657;51.204;-4.130;2023-01-10T09:58:54;10.70;99.90
49765;DHT22;35657;51.204;-4.130;2023-01-10T10:01:26;10.70;99.90
49765;DHT22;35657;51.204;-4.130;2023-01-10T10:04:01;10.80;99.90
49765;DHT22;35657;51.204;-4.130;2023-01-10T10:06:30;10.80;99.90
49765;DHT22;35657;51.204;-4.130;2023-01-10T10:08:58;10.80;99.90
49765;DHT22;35657;51.204;-4.130;2023-01-10T10:16:36;10.90;99.90
49765;DHT22;35657;51.204;-4.130;2023-01-10T10:19:27;10.90;99.90
49765;DHT22;35657;51.204;-4.130;2023-01-10T10:31:20;11.00;99.90
49765;DHT22;35657;51.204;-4.130;2023-01-10T10:36:48;11.00;99.90
49765;DHT22;35657;51.204;-4.130;2023-01-10T10:39:18;11.00;99.90
49765;DHT22;35657;51.204;-4.130;2023-01-10T10:41:48;11.00;99.90
49765;DHT22;35657;51.204;-4.130;2023-01-10T10:44:36;11.10;99.90
49765;DHT22;35657;51.204;-4.130;2023-01-10T10:47:17;11.00;99.90
49765;DHT22;35657;51.204;-4.130;2023-01-10T10:50:04;11.00;99.90
49765;DHT22;35657;51.204;-4.130;2023-01-10T10:52:34;11.00;99.90
49765;DHT22;35657;51.204;-4.130;2023-01-10T10:55:02;11.10;99.90
49765;DHT22;35657;51.204;-4.130;2023-01-10T10:57:31;11.00;99.90
49765;DHT22;35657;51.204;-4.130;2023-01-10T11:00:00;11.10;99.90
49765;DHT22;35657;51.204;-4.130;2023-01-10T11:02:28;11.10;99.90
49765;DHT22;35657;51.204;-4.130;2023-01-10T11:05:06;11.10;99.90
49765;DHT22;35657;51.204;-4.130;2023-01-10T11:07:35;11.10;99.90
49765;DHT22;35657;51.204;-4.130;2023-01-10T11:10:14;11.10;99.90
49765;DHT22;35657;51.204;-4.130;2023-01-10T11:12:48;11.20;99.90
49765;DHT22;35657;51.204;-4.130;2023-01-10T11:18:05;11.20;99.90
49765;DHT22;35657;51.204;-4.130;2023-01-10T11:20:32;11.30;99.90
49765;DHT22;35657;51.204;-4.130;2023-01-10T11:22:58;11.30;99.90
49765;DHT22;35657;51.204;-4.130;2023-01-10T11:25:24;11.30;99.90
49765;DHT22;35657;51.204;-4.130;2023-01-10T11:27:51;11.30;99.90
49765;DHT22;35657;51.204;-4.130;2023-01-10T11:30:27;11.30;99.90
49765;DHT22;35657;51.204;-4.130;2023-01-10T11:33:01;11.40;99.90
49765;DHT22;35657;51.204;-4.130;2023-01-10T11:35:35;11.40;99.90
49765;DHT22;35657;51.204;-4.130;2023-01-10T11:38:17;11.30;99.90
49765;DHT22;35657;51.204;-4.130;2023-01-10T11:40:59;11.40;99.90
49765;DHT22;35657;51.204;-4.130;2023-01-10T11:43:38;11.40;99.90
49765;DHT22;35657;51.204;-4.130;2023-01-10T11:46:23;11.50;99.90
49765;DHT22;35657;51.204;-4.130;2023-01-10T11:49:05;11.40;99.90
49765;DHT22;35657;51.204;-4.130;2023-01-10T11:51:47;11.50;99.90
49765;DHT22;35657;51.204;-4.130;2023-01-10T11:54:21;11.50;99.90
49765;DHT22;35657;51.204;-4.130;2023-01-10T11:56:58;11.50;99.90
49765;DHT22;35657;51.204;-4.130;2023-01-10T11:59:26;11.40;99.90
49765;DHT22;35657;51.204;-4.130;2023-01-10T12:02:23;11.50;99.90
49765;DHT22;35657;51.204;-4.130;2023-01-10T12:04:50;11.50;99.90
49765;DHT22;35657;51.204;-4.130;2023-01-10T12:07:16;11.50;99.90
49765;DHT22;35657;51.204;-4.130;2023-01-10T12:12:21;11.70;99.90
49765;DHT22;35657;51.204;-4.130;2023-01-10T12:14:48;11.70;99.90
49765;DHT22;35657;51.204;-4.130;2023-01-10T12:17:24;11.70;99.90
49765;DHT22;35657;51.204;-4.130;2023-01-10T12:19:55;11.70;99.90
49765;DHT22;35657;51.204;-4.130;2023-01-10T12:22:48;11.70;99.90
49765;DHT22;35657;51.204;-4.130;2023-01-10T12:28:00;11.70;99.90
49765;DHT22;35657;51.204;-4.130;2023-01-10T12:30:38;11.70;99.90
49765;DHT22;35657;51.204;-4.130;2023-01-10T12:33:13;11.80;99.90
49765;DHT22;35657;51.204;-4.130;2023-01-10T12:35:45;11.80;99.90
49765;DHT22;35657;51.204;-4.130;2023-01-10T12:38:45;11.80;99.90
49765;DHT22;35657;51.204;-4.130;2023-01-10T12:44:29;11.80;99.90
49765;DHT22;35657;51.204;-4.130;2023-01-10T12:50:28;11.80;99.90
49765;DHT22;35657;51.204;-4.130;2023-01-10T12:52:59;11.90;99.90
49765;DHT22;35657;51.204;-4.130;2023-01-10T12:55:33;11.80;99.90
49765;DHT22;35657;51.204;-4.130;2023-01-10T12:58:02;11.80;99.90
49765;DHT22;35657;51.204;-4.130;2023-01-10T13:00:33;11.90;99.90
49765;DHT22;35657;51.204;-4.130;2023-01-10T13:03:05;11.90;99.90
49765;DHT22;35657;51.204;-4.130;2023-01-10T13:05:34;11.90;99.90
49765;DHT22;35657;51.204;-4.130;2023-01-10T13:08:08;11.90;99.90
49765;DHT22;35657;51.204;-4.130;2023-01-10T13:10:38;11.90;99.90
49765;DHT22;35657;51.204;-4.130;2023-01-10T13:13:25;11.90;99.90
49765;DHT22;35657;51.204;-4.130;2023-01-10T13:19:21;11.90;99.90
49765;DHT22;35657;51.204;-4.130;2023-01-10T13:21:47;11.80;99.90
49765;DHT22;35657;51.204;-4.130;2023-01-10T13:24:23;11.90;99.90
49765;DHT22;35657;51.204;-4.130;2023-01-10T13:29:20;11.90;99.90
49765;DHT22;35657;51.204;-4.130;2023-01-10T13:31:47;11.90;99.90
49765;DHT22;35657;51.204;-4.130;2023-01-10T13:34:15;11.90;99.90
49765;DHT22;35657;51.204;-4.130;2023-01-10T13:39:39;11.90;99.90
49765;DHT22;35657;51.204;-4.130;2023-01-10T13:52:52;12.00;99.90
49765;DHT22;35657;51.204;-4.130;2023-01-10T13:57:59;12.00;99.90
49765;DHT22;35657;51.204;-4.130;2023-01-10T14:00:49;12.00;99.90
49765;DHT22;35657;51.204;-4.130;2023-01-10T14:03:43;12.00;99.90
49765;DHT22;35657;51.204;-4.130;2023-01-10T14:06:11;12.00;99.90
49765;DHT22;35657;51.204;-4.130;2023-01-10T14:08:39;12.00;99.90
49765;DHT22;35657;51.204;-4.130;2023-01-10T14:11:10;11.90;99.90
49765;DHT22;35657;51.204;-4.130;2023-01-10T14:13:37;11.90;99.90
49765;DHT22;35657;51.204;-4.130;2023-01-10T14:16:36;12.00;99.90
49765;DHT22;35657;51.204;-4.130;2023-01-10T14:19:06;12.00;99.90
49765;DHT22;35657;51.204;-4.130;2023-01-10T14:21:44;11.90;99.90
49765;DHT22;35657;51.204;-4.130;2023-01-10T14:24:26;11.90;99.90
49765;DHT22;35657;51.204;-4.130;2023-01-10T14:26:54;11.90;99.90
49765;DHT22;35657;51.204;-4.130;2023-01-10T14:29:23;11.90;99.90
49765;DHT22;35657;51.204;-4.130;2023-01-10T14:31:53;11.90;99.90
49765;DHT22;35657;51.204;-4.130;2023-01-10T14:34:28;11.90;99.90
49765;DHT22;35657;51.204;-4.130;2023-01-10T14:37:00;11.90;99.90
49765;DHT22;35657;51.204;-4.130;2023-01-10T14:39:28;11.90;99.90
49765;DHT22;35657;51.204;-4.130;2023-01-10T14:42:04;11.90;99.90
49765;DHT22;35657;51.204;-4.130;2023-01-10T14:44:44;12.00;99.90
49765;DHT22;35657;51.204;-4.130;2023-01-10T14:49:54;11.90;99.90
49765;DHT22;35657;51.204;-4.130;2023-01-10T14:52:41;12.00;99.90
49765;DHT22;35657;51.204;-4.130;2023-01-10T14:55:15;12.00;99.90
49765;DHT22;35657;51.204;-4.130;2023-01-10T14:57:52;12.00;99.90
49765;DHT22;35657;51.204;-4.130;2023-01-10T15:00:30;12.00;99.90
49765;DHT22;35657;51.204;-4.130;2023-01-10T15:02:58;12.00;99.90
49765;DHT22;35657;51.204;-4.130;2023-01-10T15:05:28;12.00;99.90
49765;DHT22;35657;51.204;-4.130;2023-01-10T15:08:12;12.00;99.90
49765;DHT22;35657;51.204;-4.130;2023-01-10T15:10:39;12.00;99.90
49765;DHT22;35657;51.204;-4.130;2023-01-10T15:13:06;11.90;99.90
49765;DHT22;35657;51.204;-4.130;2023-01-10T15:15:35;12.00;99.90
49765;DHT22;35657;51.204;-4.130;2023-01-10T15:20:48;12.00;99.90
49765;DHT22;35657;51.204;-4.130;2023-01-10T15:23:15;12.00;99.90
49765;DHT22;35657;51.204;-4.130;2023-01-10T15:25:41;12.00;99.90
49765;DHT22;35657;51.204;-4.130;2023-01-10T15:28:14;12.00;99.90
49765;DHT22;35657;51.204;-4.130;2023-01-10T15:30:40;12.00;99.90
49765;DHT22;35657;51.204;-4.130;2023-01-10T15:33:12;12.00;99.90
49765;DHT22;35657;51.204;-4.130;2023-01-10T15:35:39;12.00;99.90
49765;DHT22;35657;51.204;-4.130;2023-01-10T15:38:13;12.00;99.90
49765;DHT22;35657;51.204;-4.130;2023-01-10T15:40:40;12.00;99.90
49765;DHT22;35657;51.204;-4.130;2023-01-10T15:45:42;12.00;99.90
49765;DHT22;35657;51.204;-4.130;2023-01-10T15:48:25;12.00;99.90
49765;DHT22;35657;51.204;-4.130;2023-01-10T15:50:55;12.00;99.90
49765;DHT22;35657;51.204;-4.130;2023-01-10T15:53:52;12.00;99.90
49765;DHT22;35657;51.204;-4.130;2023-01-10T15:58:51;12.00;99.90
49765;DHT22;35657;51.204;-4.130;2023-01-10T16:01:18;12.00;99.90
49765;DHT22;35657;51.204;-4.130;2023-01-10T16:06:34;12.00;99.90
49765;DHT22;35657;51.204;-4.130;2023-01-10T16:09:04;12.00;99.90
49765;DHT22;35657;51.204;-4.130;2023-01-10T16:11:37;11.90;99.90
49765;DHT22;35657;51.204;-4.130;2023-01-10T16:14:23;12.00;99.90
49765;DHT22;35657;51.204;-4.130;2023-01-10T16:16:49;11.90;99.90
49765;DHT22;35657;51.204;-4.130;2023-01-10T16:19:15;12.00;99.90
49765;DHT22;35657;51.204;-4.130;2023-01-10T16:21:47;12.00;99.90
49765;DHT22;35657;51.204;-4.130;2023-01-10T16:24:21;11.90;99.90
49765;DHT22;35657;51.204;-4.130;2023-01-10T16:26:49;12.00;99.90
49765;DHT22;35657;51.204;-4.130;2023-01-10T16:29:15;12.00;99.90
49765;DHT22;35657;51.204;-4.130;2023-01-10T16:31:41;12.00;99.90
49765;DHT22;35657;51.204;-4.130;2023-01-10T16:34:07;12.00;99.90
49765;DHT22;35657;51.204;-4.130;2023-01-10T16:36:33;12.00;99.90
49765;DHT22;35657;51.204;-4.130;2023-01-10T16:39:21;12.10;99.90
49765;DHT22;35657;51.204;-4.130;2023-01-10T16:41:47;12.10;99.90
49765;DHT22;35657;51.204;-4.130;2023-01-10T16:44:31;12.10;99.90
49765;DHT22;35657;51.204;-4.130;2023-01-10T16:46:57;12.10;99.90
49765;DHT22;35657;51.204;-4.130;2023-01-10T16:49:23;12.10;99.90
49765;DHT22;35657;51.204;-4.130;2023-01-10T16:51:50;12.10;99.90
49765;DHT22;35657;51.204;-4.130;2023-01-10T16:54:18;12.10;99.90
49765;DHT22;35657;51.204;-4.130;2023-01-10T16:56:45;12.00;99.90
49765;DHT22;35657;51.204;-4.130;2023-01-10T16:59:12;12.10;99.90
49765;DHT22;35657;51.204;-4.130;2023-01-10T17:01:50;12.10;99.90
49765;DHT22;35657;51.204;-4.130;2023-01-10T17:04:22;12.00;99.90
49765;DHT22;35657;51.204;-4.130;2023-01-10T17:06:48;12.10;99.90
49765;DHT22;35657;51.204;-4.130;2023-01-10T17:09:24;12.00;99.90
49765;DHT22;35657;51.204;-4.130;2023-01-10T17:11:59;12.10;99.90
49765;DHT22;35657;51.204;-4.130;2023-01-10T17:14:30;12.00;99.90
49765;DHT22;35657;51.204;-4.130;2023-01-10T17:16:57;12.00;99.90
49765;DHT22;35657;51.204;-4.130;2023-01-10T17:19:22;12.00;99.90
49765;DHT22;35657;51.204;-4.130;2023-01-10T17:21:48;12.00;99.90
49765;DHT22;35657;51.204;-4.130;2023-01-10T17:24:14;12.00;99.90
49765;DHT22;35657;51.204;-4.130;2023-01-10T17:26:40;12.10;99.90
49765;DHT22;35657;51.204;-4.130;2023-01-10T17:29:05;12.10;99.90
49765;DHT22;35657;51.204;-4.130;2023-01-10T17:31:31;12.10;99.90
49765;DHT22;35657;51.204;-4.130;2023-01-10T17:33:57;12.20;99.90
49765;DHT22;35657;51.204;-4.130;2023-01-10T17:36:22;12.20;99.90